createdAt,value
2019-06-07T00:00:38.425Z,0
2019-06-07T00:01:27.618Z,0
2019-06-07T00:02:29.017Z,0
2019-06-07T00:03:30.555Z,0
2019-06-07T00:04:31.849Z,0
2019-06-07T00:05:33.282Z,0
2019-06-07T00:06:34.639Z,0
2019-06-07T00:07:36.054Z,0
2019-06-07T00:08:37.459Z,0
2019-06-07T00:09:38.855Z,0
2019-06-07T00:10:40.287Z,0
2019-06-07T00:11:41.676Z,0
2019-06-07T00:12:43.069Z,0
2019-06-07T00:13:44.470Z,0
2019-06-07T00:14:45.893Z,0
2019-06-07T00:15:47.299Z,0
2019-06-07T00:16:48.708Z,0
2019-06-07T00:17:50.388Z,0
2019-06-07T00:18:51.600Z,0
2019-06-07T00:19:53.021Z,0
2019-06-07T00:20:54.464Z,0
2019-06-07T00:22:31.572Z,0
2019-06-07T00:22:57.499Z,0
2019-06-07T00:23:58.916Z,0
2019-06-07T00:25:00.335Z,0
2019-06-07T00:26:01.739Z,0
2019-06-07T00:27:03.138Z,0
2019-06-07T00:28:04.550Z,0
2019-06-07T00:29:05.947Z,0
2019-06-07T00:30:32.717Z,0
2019-06-07T00:31:09.037Z,0
2019-06-07T00:32:11.586Z,0
2019-06-07T00:33:16.572Z,0
2019-06-07T00:34:14.035Z,0
2019-06-07T00:35:15.487Z,0
2019-06-07T00:36:17.662Z,0
2019-06-07T00:37:19.793Z,0
2019-06-07T00:38:20.474Z,0
2019-06-07T00:39:24.580Z,0
2019-06-07T00:40:31.378Z,0
2019-06-07T00:41:22.798Z,0
2019-06-07T00:42:24.569Z,0
2019-06-07T00:43:28.238Z,0
2019-06-07T00:44:26.997Z,0
2019-06-07T00:45:28.376Z,0
2019-06-07T00:46:29.802Z,0
2019-06-07T00:47:31.222Z,0
2019-06-07T00:48:33.161Z,0
2019-06-07T00:49:40.988Z,0
2019-06-07T00:50:35.390Z,0
2019-06-07T00:51:49.958Z,0
2019-06-07T00:53:39.773Z,0
2019-06-07T00:54:41.184Z,0
2019-06-07T00:55:42.604Z,0
2019-06-07T00:56:44.042Z,0
2019-06-07T00:57:45.455Z,0
2019-06-07T00:58:46.853Z,0
2019-06-07T00:59:48.265Z,0
2019-06-07T01:00:49.683Z,0
2019-06-07T01:01:51.142Z,0
2019-06-07T01:02:52.513Z,0
2019-06-07T01:03:53.931Z,0
2019-06-07T01:04:55.359Z,0
2019-06-07T01:05:56.755Z,0
2019-06-07T01:06:58.189Z,0
2019-06-07T01:07:59.639Z,0
2019-06-07T01:09:01.051Z,0
2019-06-07T01:10:02.508Z,0
2019-06-07T01:11:03.918Z,0
2019-06-07T01:12:05.341Z,0
2019-06-07T01:13:06.740Z,0
2019-06-07T01:14:08.179Z,0
2019-06-07T01:15:09.614Z,0
2019-06-07T01:16:10.988Z,0
2019-06-07T01:17:23.505Z,0
2019-06-07T01:18:35.893Z,0
2019-06-07T01:19:16.276Z,0
2019-06-07T01:20:16.671Z,0
2019-06-07T01:21:20.668Z,0
2019-06-07T01:22:20.711Z,0
2019-06-07T01:23:57.811Z,0
2019-06-07T01:24:24.556Z,0
2019-06-07T01:25:26.133Z,0
2019-06-07T01:26:26.963Z,0
2019-06-07T01:27:26.345Z,0
2019-06-07T01:28:29.971Z,0
2019-06-07T01:29:30.806Z,0
2019-06-07T01:30:30.555Z,0
2019-06-07T01:31:32.020Z,0
2019-06-07T01:32:33.267Z,0
2019-06-07T01:33:50.295Z,0
2019-06-07T01:34:36.062Z,0
2019-06-07T01:35:37.477Z,0
2019-06-07T01:36:38.906Z,0
2019-06-07T01:37:40.324Z,0
2019-06-07T01:38:41.753Z,0
2019-06-07T01:39:43.154Z,0
2019-06-07T01:40:44.551Z,0
2019-06-07T01:41:45.960Z,0
2019-06-07T01:42:47.374Z,0
2019-06-07T01:43:48.776Z,0
2019-06-07T01:44:50.175Z,0
2019-06-07T01:45:51.724Z,0
2019-06-07T01:46:53.126Z,0
2019-06-07T01:47:54.530Z,0
2019-06-07T01:48:55.924Z,0
2019-06-07T01:49:57.354Z,0
2019-06-07T01:50:58.750Z,0
2019-06-07T01:52:00.185Z,0
2019-06-07T01:53:01.587Z,0
2019-06-07T01:54:48.494Z,0
2019-06-07T01:55:04.406Z,0
2019-06-07T01:56:05.806Z,0
2019-06-07T01:57:07.219Z,0
2019-06-07T01:58:08.621Z,0
2019-06-07T01:59:10.039Z,0
2019-06-07T02:00:11.454Z,0
2019-06-07T02:01:12.857Z,0
2019-06-07T02:02:14.303Z,0
2019-06-07T02:03:15.758Z,0
2019-06-07T02:04:19.231Z,0
2019-06-07T02:05:19.652Z,0
2019-06-07T02:06:21.027Z,0
2019-06-07T02:07:26.903Z,0
2019-06-07T02:08:23.874Z,0
2019-06-07T02:09:26.409Z,0
2019-06-07T02:10:29.922Z,0
2019-06-07T02:11:28.614Z,0
2019-06-07T02:12:37.694Z,0
2019-06-07T02:13:30.722Z,0
2019-06-07T02:14:33.262Z,4
2019-06-07T02:15:36.437Z,4
2019-06-07T02:16:33.608Z,4
2019-06-07T02:17:35.018Z,0
2019-06-07T02:18:36.430Z,0
2019-06-07T02:19:37.832Z,0
2019-06-07T02:20:39.243Z,4
2019-06-07T02:21:40.651Z,4
2019-06-07T02:22:42.063Z,4
2019-06-07T02:23:43.469Z,4
2019-06-07T02:24:44.870Z,4
2019-06-07T02:25:50.171Z,4
2019-06-07T02:26:47.661Z,4
2019-06-07T02:27:49.705Z,4
2019-06-07T02:28:51.100Z,4
2019-06-07T02:29:52.515Z,8
2019-06-07T02:30:59.791Z,8
2019-06-07T02:31:55.273Z,8
2019-06-07T02:32:56.663Z,8
2019-06-07T02:33:58.113Z,8
2019-06-07T02:34:59.514Z,8
2019-06-07T02:36:00.956Z,8
2019-06-07T02:37:02.363Z,12
2019-06-07T02:38:03.758Z,12
2019-06-07T02:39:05.167Z,16
2019-06-07T02:40:06.565Z,16
2019-06-07T02:41:07.966Z,16
2019-06-07T02:42:09.369Z,16
2019-06-07T02:43:10.794Z,20
2019-06-07T02:44:12.961Z,24
2019-06-07T02:45:14.368Z,28
2019-06-07T02:46:28.090Z,32
2019-06-07T02:47:17.138Z,36
2019-06-07T02:48:18.539Z,40
2019-06-07T02:49:19.946Z,44
2019-06-07T02:50:22.982Z,52
2019-06-07T02:51:24.460Z,60
2019-06-07T02:52:27.366Z,68
2019-06-07T02:53:26.839Z,76
2019-06-07T02:54:29.861Z,80
2019-06-07T02:55:33.216Z,84
2019-06-07T02:56:52.209Z,88
2019-06-07T02:57:36.896Z,92
2019-06-07T02:58:37.960Z,104
2019-06-07T02:59:54.965Z,116
2019-06-07T03:01:00.363Z,124
2019-06-07T03:01:41.346Z,132
2019-06-07T03:02:41.515Z,140
2019-06-07T03:03:40.472Z,148
2019-06-07T03:04:44.269Z,156
2019-06-07T03:05:43.295Z,164
2019-06-07T03:06:44.694Z,172
2019-06-07T03:07:46.103Z,180
2019-06-07T03:08:47.498Z,188
2019-06-07T03:09:48.908Z,200
2019-06-07T03:10:50.360Z,208
2019-06-07T03:11:51.821Z,216
2019-06-07T03:12:53.248Z,224
2019-06-07T03:13:54.661Z,236
2019-06-07T03:14:56.050Z,252
2019-06-07T03:15:57.468Z,260
2019-06-07T03:16:58.875Z,272
2019-06-07T03:18:00.292Z,284
2019-06-07T03:19:01.709Z,296
2019-06-07T03:20:03.129Z,316
2019-06-07T03:21:05.641Z,328
2019-06-07T03:22:05.905Z,348
2019-06-07T03:23:07.329Z,372
2019-06-07T03:24:08.778Z,396
2019-06-07T03:25:10.169Z,416
2019-06-07T03:26:11.597Z,444
2019-06-07T03:28:14.581Z,500
2019-06-07T03:29:15.988Z,524
2019-06-07T03:30:39.127Z,548
2019-06-07T03:31:19.489Z,572
2019-06-07T03:32:20.912Z,612
2019-06-07T03:33:22.332Z,672
2019-06-07T03:34:23.745Z,724
2019-06-07T03:35:27.605Z,772
2019-06-07T03:36:27.482Z,824
2019-06-07T03:37:29.966Z,860
2019-06-07T03:38:31.987Z,896
2019-06-07T03:39:31.397Z,944
2019-06-07T03:40:33.953Z,984
2019-06-07T03:41:43.809Z,1028
2019-06-07T03:42:38.346Z,1044
2019-06-07T03:43:39.962Z,1060
2019-06-07T03:44:40.660Z,1096
2019-06-07T03:45:41.447Z,1112
2019-06-07T03:46:41.612Z,1148
2019-06-07T03:47:42.645Z,1188
2019-06-07T03:48:43.133Z,1212
2019-06-07T03:49:44.535Z,1244
2019-06-07T03:50:45.967Z,1272
2019-06-07T03:51:47.379Z,1304
2019-06-07T03:52:48.804Z,1360
2019-06-07T03:53:50.222Z,1436
2019-06-07T03:54:51.620Z,1516
2019-06-07T03:55:53.070Z,1456
2019-06-07T03:56:54.473Z,1288
2019-06-07T03:58:57.446Z,1728
2019-06-07T03:59:58.884Z,1852
2019-06-07T04:01:02.078Z,1892
2019-06-07T04:02:01.686Z,1900
2019-06-07T04:03:03.104Z,1892
2019-06-07T04:04:04.537Z,1676
2019-06-07T04:05:05.949Z,2008
2019-06-07T04:06:07.352Z,2048
2019-06-07T04:07:08.766Z,1964
2019-06-07T04:08:10.185Z,2044
2019-06-07T04:09:11.582Z,2068
2019-06-07T04:10:12.984Z,2016
2019-06-07T04:11:14.410Z,2176
2019-06-07T04:12:15.849Z,2068
2019-06-07T04:13:17.275Z,2024
2019-06-07T04:14:18.677Z,1864
2019-06-07T04:15:20.110Z,1880
2019-06-07T04:16:21.529Z,1788
2019-06-07T04:17:22.940Z,1704
2019-06-07T04:18:24.364Z,1548
2019-06-07T04:19:25.797Z,1160
2019-06-07T04:20:29.193Z,1020
2019-06-07T04:21:29.731Z,1000
2019-06-07T04:22:31.465Z,984
2019-06-07T04:23:33.120Z,980
2019-06-07T04:24:34.670Z,984
2019-06-07T04:25:37.118Z,996
2019-06-07T04:26:36.811Z,1036
2019-06-07T04:27:39.305Z,1108
2019-06-07T04:30:03.463Z,1452
2019-06-07T04:30:41.999Z,1460
2019-06-07T04:31:43.181Z,1740
2019-06-07T04:32:44.990Z,2100
2019-06-07T04:33:45.460Z,2216
2019-06-07T04:34:46.874Z,1944
2019-06-07T04:35:48.282Z,1820
2019-06-07T04:36:58.823Z,1856
2019-06-07T04:37:51.058Z,2512
2019-06-07T04:38:52.465Z,3828
2019-06-07T04:39:53.921Z,3624
2019-06-07T04:40:55.295Z,3676
2019-06-07T04:41:56.697Z,3328
2019-06-07T04:42:58.117Z,3008
2019-06-07T04:43:59.533Z,2880
2019-06-07T04:45:00.956Z,2592
2019-06-07T04:46:02.364Z,3552
2019-06-07T04:47:03.793Z,3964
2019-06-07T04:48:05.221Z,4264
2019-06-07T04:49:06.642Z,4096
2019-06-07T04:50:08.057Z,3528
2019-06-07T04:51:10.408Z,4060
2019-06-07T04:52:11.901Z,2676
2019-06-07T04:53:13.322Z,3052
2019-06-07T04:54:14.739Z,2688
2019-06-07T04:55:16.156Z,2096
2019-06-07T04:56:17.563Z,1780
2019-06-07T04:57:19.004Z,1840
2019-06-07T04:58:20.438Z,1980
2019-06-07T05:00:01.236Z,2012
2019-06-07T05:00:48.708Z,3340
2019-06-07T05:01:27.833Z,9784
2019-06-07T05:02:26.376Z,9852
2019-06-07T05:03:27.858Z,8492
2019-06-07T05:04:31.286Z,7296
2019-06-07T05:05:31.748Z,9160
2019-06-07T05:06:34.824Z,11572
2019-06-07T05:07:34.598Z,10856
2019-06-07T05:08:36.163Z,9328
2019-06-07T05:09:38.974Z,9628
2019-06-07T05:10:38.851Z,12224
2019-06-07T05:11:43.354Z,14432
2019-06-07T05:12:43.986Z,14560
2019-06-07T05:13:43.811Z,13600
2019-06-07T05:14:44.347Z,10764
2019-06-07T05:15:44.488Z,8224
2019-06-07T05:16:45.904Z,7592
2019-06-07T05:17:47.315Z,7708
2019-06-07T05:18:48.734Z,7412
2019-06-07T05:19:50.146Z,6840
2019-06-07T05:20:51.559Z,6692
2019-06-07T05:22:03.433Z,6824
2019-06-07T05:22:54.331Z,6708
2019-06-07T05:24:06.564Z,6388
2019-06-07T05:24:57.310Z,6120
2019-06-07T05:25:58.718Z,5904
2019-06-07T05:27:00.120Z,5736
2019-06-07T05:28:01.536Z,5616
2019-06-07T05:29:02.945Z,5580
2019-06-07T05:30:23.744Z,5472
2019-06-07T05:31:07.861Z,5416
2019-06-07T05:32:07.328Z,5352
2019-06-07T05:33:09.365Z,5400
2019-06-07T05:34:10.783Z,5412
2019-06-07T05:35:12.319Z,5500
2019-06-07T05:36:13.844Z,5552
2019-06-07T05:37:15.299Z,5732
2019-06-07T05:38:16.717Z,5804
2019-06-07T05:39:18.130Z,5936
2019-06-07T05:40:19.547Z,6120
2019-06-07T05:41:20.961Z,6468
2019-06-07T05:42:22.346Z,6936
2019-06-07T05:43:23.754Z,7224
2019-06-07T05:44:25.168Z,7436
2019-06-07T05:45:26.609Z,6404
2019-06-07T05:46:27.991Z,3344
2019-06-07T05:47:29.410Z,3828
2019-06-07T05:48:31.808Z,3288
2019-06-07T05:49:32.908Z,3424
2019-06-07T05:50:43.921Z,6656
2019-06-07T05:51:37.254Z,7812
2019-06-07T05:52:39.545Z,8284
2019-06-07T05:53:38.988Z,8572
2019-06-07T05:54:40.501Z,5056
2019-06-07T05:55:44.157Z,8028
2019-06-07T05:56:43.259Z,8104
2019-06-07T05:57:48.576Z,7244
2019-06-07T05:58:44.817Z,9568
2019-06-07T05:59:47.633Z,9428
2019-06-07T06:00:48.180Z,3252
2019-06-07T06:02:00.161Z,6268
2019-06-07T06:03:04.071Z,10212
2019-06-07T06:03:52.400Z,10164
2019-06-07T06:04:53.818Z,9352
2019-06-07T06:05:55.670Z,7960
2019-06-07T06:06:56.675Z,10740
2019-06-07T06:07:58.325Z,5708
2019-06-07T06:09:13.404Z,11356
2019-06-07T06:10:00.820Z,9824
2019-06-07T06:11:02.227Z,10252
2019-06-07T06:12:03.642Z,9980
2019-06-07T06:13:05.045Z,4992
2019-06-07T06:14:08.341Z,2412
2019-06-07T06:15:07.829Z,2656
2019-06-07T06:16:09.236Z,3300
2019-06-07T06:17:10.647Z,4820
2019-06-07T06:18:12.059Z,3596
2019-06-07T06:19:13.470Z,4088
2019-06-07T06:20:14.880Z,3300
2019-06-07T06:21:19.759Z,3228
2019-06-07T06:22:17.675Z,3572
2019-06-07T06:23:19.088Z,4160
2019-06-07T06:24:20.518Z,11484
2019-06-07T06:25:32.247Z,11656
2019-06-07T06:26:25.523Z,11876
2019-06-07T06:28:03.503Z,12064
2019-06-07T06:28:28.536Z,11184
2019-06-07T06:29:29.971Z,3996
2019-06-07T06:30:31.399Z,3476
2019-06-07T06:31:32.830Z,3216
2019-06-07T06:32:46.728Z,3352
2019-06-07T06:33:35.860Z,3712
2019-06-07T06:34:40.045Z,3684
2019-06-07T06:35:39.866Z,3808
2019-06-07T06:36:43.649Z,4264
2019-06-07T06:37:42.512Z,3816
2019-06-07T06:38:43.890Z,4624
2019-06-07T06:39:47.645Z,4112
2019-06-07T06:40:48.916Z,3476
2019-06-07T06:41:58.617Z,3528
2019-06-07T06:42:49.021Z,3732
2019-06-07T06:43:52.157Z,4120
2019-06-07T06:44:53.992Z,4512
2019-06-07T06:45:52.585Z,5056
2019-06-07T06:46:58.188Z,7144
2019-06-07T06:47:55.433Z,7396
2019-06-07T06:48:57.004Z,5868
2019-06-07T06:49:58.281Z,5596
2019-06-07T06:50:59.698Z,5384
2019-06-07T06:52:01.142Z,5444
2019-06-07T06:53:02.561Z,5392
2019-06-07T06:54:03.964Z,5072
2019-06-07T06:55:05.420Z,5728
2019-06-07T06:56:06.849Z,9096
2019-06-07T06:57:19.735Z,4380
2019-06-07T06:58:09.622Z,3932
2019-06-07T06:59:37.101Z,3508
2019-06-07T07:00:12.716Z,3272
2019-06-07T07:01:14.149Z,3156
2019-06-07T07:02:15.608Z,3116
2019-06-07T07:03:56.563Z,3092
2019-06-07T07:04:18.609Z,3072
2019-06-07T07:05:20.047Z,3236
2019-06-07T07:06:26.322Z,3428
2019-06-07T07:07:23.123Z,3584
2019-06-07T07:08:24.573Z,3740
2019-06-07T07:09:26.000Z,3720
2019-06-07T07:10:27.419Z,3608
2019-06-07T07:11:28.854Z,3428
2019-06-07T07:12:30.289Z,3452
2019-06-07T07:13:31.793Z,3612
2019-06-07T07:14:33.300Z,3752
2019-06-07T07:15:34.613Z,4108
2019-06-07T07:16:36.033Z,4184
2019-06-07T07:17:50.730Z,4112
2019-06-07T07:18:38.840Z,4240
2019-06-07T07:19:42.348Z,4860
2019-06-07T07:20:43.550Z,4828
2019-06-07T07:21:45.093Z,5132
2019-06-07T07:22:46.400Z,6792
2019-06-07T07:24:08.615Z,5940
2019-06-07T07:24:49.732Z,8904
2019-06-07T07:25:57.269Z,8432
2019-06-07T07:26:51.150Z,8280
2019-06-07T07:27:53.842Z,8416
2019-06-07T07:28:57.220Z,8240
2019-06-07T07:30:22.781Z,7896
2019-06-07T07:30:56.982Z,7552
2019-06-07T07:31:56.935Z,7168
2019-06-07T07:32:59.420Z,7084
2019-06-07T07:34:30.923Z,6664
2019-06-07T07:35:01.205Z,3656
2019-06-07T07:36:18.899Z,4216
2019-06-07T07:37:04.197Z,5576
2019-06-07T07:38:05.697Z,5468
2019-06-07T07:39:07.171Z,5940
2019-06-07T07:40:55.483Z,8456
2019-06-07T07:41:15.524Z,8048
2019-06-07T07:42:20.917Z,8668
2019-06-07T07:43:13.032Z,4620
2019-06-07T07:44:14.456Z,4488
2019-06-07T07:45:16.677Z,5196
2019-06-07T07:46:31.818Z,5612
2019-06-07T07:47:18.902Z,7712
2019-06-07T07:48:20.330Z,7012
2019-06-07T07:49:21.745Z,4560
2019-06-07T07:50:23.166Z,5364
2019-06-07T07:51:24.611Z,7328
2019-06-07T07:52:26.029Z,7380
2019-06-07T07:53:45.296Z,6964
2019-06-07T07:54:28.850Z,4432
2019-06-07T07:55:30.309Z,3896
2019-06-07T07:56:31.682Z,7212
2019-06-07T07:57:33.090Z,7116
2019-06-07T07:58:34.510Z,7192
2019-06-07T07:59:44.189Z,7492
2019-06-07T08:00:52.365Z,7532
2019-06-07T08:01:38.757Z,4548
2019-06-07T08:02:40.167Z,7272
2019-06-07T08:03:41.589Z,7200
2019-06-07T08:05:13.977Z,7204
2019-06-07T08:05:45.696Z,7940
2019-06-07T08:06:46.662Z,7996
2019-06-07T08:07:49.871Z,8028
2019-06-07T08:08:48.757Z,8740
2019-06-07T08:09:51.422Z,6184
2019-06-07T08:10:53.710Z,8444
2019-06-07T08:11:55.873Z,8188
2019-06-07T08:13:15.886Z,8248
2019-06-07T08:13:57.311Z,8464
2019-06-07T08:15:00.298Z,8416
2019-06-07T08:16:00.453Z,8368
2019-06-07T08:16:59.816Z,8524
2019-06-07T08:18:04.323Z,6872
2019-06-07T08:19:04.342Z,6068
2019-06-07T08:20:04.966Z,5872
2019-06-07T08:21:23.722Z,7624
2019-06-07T08:22:07.795Z,7056
2019-06-07T08:23:09.232Z,5272
2019-06-07T08:24:10.661Z,5120
2019-06-07T08:25:12.065Z,4060
2019-06-07T08:26:13.485Z,4432
2019-06-07T08:27:26.036Z,6864
2019-06-07T08:28:16.346Z,6728
2019-06-07T08:29:17.763Z,6568
2019-06-07T08:30:47.947Z,6512
2019-06-07T08:31:20.824Z,6964
2019-06-07T08:32:22.225Z,6936
2019-06-07T08:33:26.360Z,6968
2019-06-07T08:34:25.319Z,6928
2019-06-07T08:36:41.359Z,7284
2019-06-07T08:38:13.251Z,7248
2019-06-07T08:38:47.010Z,7472
2019-06-07T08:39:32.532Z,7584
2019-06-07T08:40:33.969Z,7168
2019-06-07T08:41:35.381Z,5860
2019-06-07T08:42:42.344Z,7240
2019-06-07T08:43:38.209Z,7136
2019-06-07T08:44:39.617Z,7676
2019-06-07T08:45:43.136Z,8476
2019-06-07T08:46:44.700Z,8876
2019-06-07T08:47:46.183Z,6524
2019-06-07T08:48:47.601Z,5356
2019-06-07T08:49:50.955Z,5896
2019-06-07T08:50:54.202Z,6164
2019-06-07T08:51:56.625Z,7456
2019-06-07T08:52:56.470Z,7728
2019-06-07T08:54:18.919Z,7412
2019-06-07T08:54:57.872Z,5320
2019-06-07T08:56:04.417Z,6288
2019-06-07T08:57:16.878Z,6152
2019-06-07T08:58:05.772Z,6088
2019-06-07T08:59:10.859Z,6116
2019-06-07T09:00:16.219Z,5984
2019-06-07T09:01:08.273Z,5888
2019-06-07T09:02:22.513Z,5888
2019-06-07T09:03:07.544Z,5824
2019-06-07T09:04:11.009Z,5832
2019-06-07T09:05:12.438Z,5984
2019-06-07T09:06:53.386Z,6044
2019-06-07T09:07:19.469Z,5988
2019-06-07T09:08:29.202Z,5948
2019-06-07T09:09:15.536Z,5868
2019-06-07T09:10:16.977Z,5912
2019-06-07T09:11:18.397Z,6112
2019-06-07T09:12:19.816Z,5916
2019-06-07T09:13:21.268Z,5752
2019-06-07T09:14:22.714Z,5800
2019-06-07T09:15:24.477Z,5836
2019-06-07T09:16:25.518Z,5896
2019-06-07T09:17:26.958Z,5816
2019-06-07T09:18:42.346Z,3648
2019-06-07T09:19:29.942Z,5808
2019-06-07T09:20:36.892Z,5720
2019-06-07T09:21:32.777Z,5696
2019-06-07T09:22:34.187Z,5620
2019-06-07T09:23:35.637Z,5708
2019-06-07T09:24:37.057Z,5636
2019-06-07T09:25:55.985Z,5624
2019-06-07T09:26:39.891Z,5624
2019-06-07T09:27:41.343Z,5608
2019-06-07T09:28:42.784Z,5556
2019-06-07T09:29:44.214Z,5456
2019-06-07T09:30:45.684Z,5280
2019-06-07T09:31:53.200Z,5096
2019-06-07T09:32:48.730Z,5012
2019-06-07T09:33:50.159Z,5060
2019-06-07T09:34:51.569Z,4988
2019-06-07T09:35:52.997Z,4908
2019-06-07T09:36:54.423Z,4884
2019-06-07T09:38:07.284Z,4896
2019-06-07T09:38:58.942Z,4916
2019-06-07T09:40:05.596Z,4912
2019-06-07T09:41:02.331Z,4840
2019-06-07T09:42:04.285Z,4908
2019-06-07T09:43:47.574Z,4820
2019-06-07T09:44:20.408Z,4816
2019-06-07T09:45:08.853Z,4756
2019-06-07T09:46:12.866Z,4840
2019-06-07T09:47:30.456Z,4844
2019-06-07T09:48:13.883Z,4904
2019-06-07T09:49:21.267Z,4848
2019-06-07T09:50:12.748Z,4776
2019-06-07T09:51:20.059Z,4804
2019-06-07T09:52:15.463Z,4880
2019-06-07T09:53:22.352Z,4944
2019-06-07T09:55:24.785Z,5060
2019-06-07T09:56:22.377Z,5184
2019-06-07T09:57:23.823Z,5864
2019-06-07T09:58:51.035Z,5344
2019-06-07T09:59:26.862Z,5232
2019-06-07T10:00:40.584Z,4996
2019-06-07T10:01:29.877Z,4776
2019-06-07T10:02:31.289Z,4840
2019-06-07T10:03:32.720Z,4976
2019-06-07T10:04:34.192Z,5040
2019-06-07T10:05:35.629Z,5128
2019-06-07T10:06:37.099Z,5676
2019-06-07T10:07:38.538Z,5596
2019-06-07T10:09:57.082Z,5148
2019-06-07T10:10:43.455Z,4696
2019-06-07T10:11:44.530Z,4712
2019-06-07T10:12:45.948Z,4248
2019-06-07T10:13:47.388Z,4896
2019-06-07T10:14:48.845Z,5032
2019-06-07T10:15:53.027Z,5348
2019-06-07T10:16:51.681Z,6416
2019-06-07T10:17:53.114Z,6576
2019-06-07T10:18:54.543Z,6124
2019-06-07T10:19:55.971Z,4804
2019-06-07T10:20:57.382Z,5596
2019-06-07T10:21:59.114Z,4888
2019-06-07T10:23:01.639Z,5520
2019-06-07T10:24:01.689Z,5060
2019-06-07T10:25:04.254Z,5028
2019-06-07T10:26:05.952Z,5260
2019-06-07T10:27:06.036Z,5016
2019-06-07T10:28:08.259Z,5272
2019-06-07T10:29:09.071Z,5692
2019-06-07T10:30:10.435Z,5160
2019-06-07T10:31:11.553Z,5348
2019-06-07T10:32:12.932Z,5712
2019-06-07T10:33:14.379Z,4672
2019-06-07T10:34:15.811Z,4832
2019-06-07T10:35:17.272Z,4700
2019-06-07T10:36:18.711Z,4544
2019-06-07T10:37:20.177Z,4696
2019-06-07T10:38:21.655Z,4588
2019-06-07T10:39:23.098Z,4552
2019-06-07T10:40:24.513Z,4644
2019-06-07T10:41:25.928Z,4504
2019-06-07T10:42:27.364Z,4504
2019-06-07T10:43:28.786Z,4708
2019-06-07T10:44:30.226Z,4808
2019-06-07T10:45:31.666Z,5448
2019-06-07T10:46:33.131Z,4012
2019-06-07T10:47:34.538Z,3652
2019-06-07T10:48:35.993Z,5104
2019-06-07T10:49:37.469Z,3496
2019-06-07T10:50:38.886Z,4596
2019-06-07T10:51:40.335Z,4648
2019-06-07T10:52:41.748Z,4812
2019-06-07T10:53:43.215Z,4992
2019-06-07T10:54:44.648Z,4956
2019-06-07T10:55:46.079Z,5036
2019-06-07T10:56:47.531Z,5224
2019-06-07T10:57:48.955Z,5492
2019-06-07T10:58:50.399Z,5608
2019-06-07T10:59:51.881Z,5548
2019-06-07T11:00:53.297Z,5688
2019-06-07T11:01:54.715Z,5908
2019-06-07T11:02:56.127Z,6220
2019-06-07T11:03:57.572Z,6340
2019-06-07T11:04:59.036Z,7080
2019-06-07T11:06:00.476Z,6876
2019-06-07T11:07:01.925Z,7608
2019-06-07T11:08:03.857Z,7148
2019-06-07T11:09:05.924Z,7516
2019-06-07T11:10:10.772Z,7564
2019-06-07T11:11:07.969Z,7684
2019-06-07T11:12:10.584Z,8040
2019-06-07T11:13:10.493Z,8172
2019-06-07T11:14:12.646Z,7268
2019-06-07T11:15:13.192Z,7400
2019-06-07T11:16:15.660Z,7756
2019-06-07T11:17:17.773Z,12732
2019-06-07T11:18:18.782Z,15500
2019-06-07T11:19:19.731Z,14940
2019-06-07T11:20:20.337Z,15776
2019-06-07T11:21:21.822Z,8236
2019-06-07T11:22:23.296Z,5688
2019-06-07T11:23:24.757Z,6276
2019-06-07T11:24:26.216Z,7088
2019-06-07T11:25:27.609Z,6556
2019-06-07T11:26:29.063Z,10876
2019-06-07T11:27:30.515Z,10904
2019-06-07T11:28:31.964Z,11232
2019-06-07T11:29:33.421Z,11248
2019-06-07T11:30:34.865Z,12028
2019-06-07T11:31:36.308Z,12592
2019-06-07T11:32:37.754Z,12344
2019-06-07T11:33:39.400Z,10144
2019-06-07T11:34:41.982Z,26144
2019-06-07T11:35:43.398Z,66656
2019-06-07T11:36:44.817Z,96992
2019-06-07T11:37:46.254Z,94592
2019-06-07T11:38:47.682Z,96704
2019-06-07T11:39:49.136Z,105408
2019-06-07T11:40:50.561Z,10516
2019-06-07T11:41:52.021Z,60672
2019-06-07T11:42:53.458Z,88736
2019-06-07T11:43:55.430Z,97312
2019-06-07T11:44:57.352Z,53248
2019-06-07T11:45:58.321Z,87488
2019-06-07T11:46:59.746Z,84512
2019-06-07T11:48:01.213Z,92416
2019-06-07T11:49:02.650Z,100704
2019-06-07T11:50:04.075Z,100384
2019-06-07T11:51:06.557Z,98432
2019-06-07T11:52:07.333Z,96096
2019-06-07T11:53:08.536Z,92224
2019-06-07T11:54:09.766Z,79520
2019-06-07T11:55:11.524Z,68096
2019-06-07T11:56:13.896Z,67680
2019-06-07T11:57:15.053Z,81248
2019-06-07T11:58:18.548Z,99360
2019-06-07T11:59:17.364Z,108672
2019-06-07T12:00:18.413Z,107392
2019-06-07T12:01:19.529Z,96064
2019-06-07T12:02:20.934Z,91808
2019-06-07T12:03:22.393Z,101376
2019-06-07T12:04:34.501Z,113984
2019-06-07T12:05:25.244Z,115040
2019-06-07T12:06:26.673Z,105504
2019-06-07T12:07:28.104Z,104384
2019-06-07T12:08:29.551Z,107488
2019-06-07T12:09:30.985Z,21856
2019-06-07T12:10:42.048Z,15100
2019-06-07T12:11:33.898Z,103392
2019-06-07T12:12:35.540Z,12820
2019-06-07T12:13:37.407Z,93952
2019-06-07T12:14:38.868Z,71648
2019-06-07T12:15:40.339Z,83232
2019-06-07T12:16:41.806Z,93280
2019-06-07T12:17:43.251Z,49984
2019-06-07T12:18:44.662Z,32640
2019-06-07T12:19:46.075Z,70560
2019-06-07T12:20:47.526Z,39072
2019-06-07T12:21:48.939Z,4228
2019-06-07T12:22:50.355Z,3880
2019-06-07T12:23:51.775Z,5028
2019-06-07T12:24:53.185Z,80416
2019-06-07T12:25:54.618Z,77760
2019-06-07T12:26:56.068Z,58880
2019-06-07T12:27:57.476Z,37536
2019-06-07T12:28:58.903Z,3824
2019-06-07T12:30:00.318Z,2996
2019-06-07T12:31:01.757Z,3184
2019-06-07T12:32:03.170Z,53856
2019-06-07T12:33:04.611Z,106496
2019-06-07T12:34:06.044Z,104544
2019-06-07T12:35:07.475Z,101376
2019-06-07T12:36:08.892Z,100160
2019-06-07T12:37:11.632Z,82144
2019-06-07T12:38:12.327Z,29152
2019-06-07T12:39:13.824Z,4888
2019-06-07T12:40:19.354Z,8052
2019-06-07T12:41:16.161Z,7284
2019-06-07T12:42:18.529Z,5860
2019-06-07T12:43:19.168Z,4208
2019-06-07T12:44:20.755Z,4200
2019-06-07T12:45:42.399Z,4288
2019-06-07T12:46:27.976Z,4900
2019-06-07T12:47:24.375Z,6656
2019-06-07T12:48:26.143Z,4944
2019-06-07T12:49:31.111Z,3908
2019-06-07T12:50:42.805Z,3612
2019-06-07T12:51:33.921Z,3900
2019-06-07T12:52:35.337Z,4136
2019-06-07T12:53:36.742Z,4012
2019-06-07T12:54:38.152Z,4184
2019-06-07T12:55:39.575Z,23360
2019-06-07T12:56:41.029Z,60896
2019-06-07T12:57:43.171Z,13552
2019-06-07T12:58:44.608Z,8872
2019-06-07T12:59:46.013Z,5460
2019-06-07T13:00:47.471Z,4544
2019-06-07T13:01:48.952Z,3868
2019-06-07T13:02:50.357Z,3152
2019-06-07T13:03:51.768Z,2736
2019-06-07T13:04:53.176Z,3108
2019-06-07T13:05:54.596Z,3048
2019-06-07T13:06:56.027Z,2716
2019-06-07T13:07:57.435Z,3056
2019-06-07T13:08:58.854Z,2884
2019-06-07T13:10:00.280Z,4184
2019-06-07T13:11:14.775Z,3068
2019-06-07T13:12:03.057Z,2520
2019-06-07T13:13:04.486Z,2544
2019-06-07T13:14:05.900Z,2812
2019-06-07T13:15:07.395Z,2972
2019-06-07T13:16:08.840Z,3208
2019-06-07T13:17:10.240Z,3156
2019-06-07T13:18:14.851Z,3040
2019-06-07T13:19:13.023Z,3576
2019-06-07T13:20:14.448Z,3888
2019-06-07T13:21:16.201Z,3488
2019-06-07T13:22:18.213Z,2688
2019-06-07T13:23:19.308Z,2692
2019-06-07T13:24:20.927Z,2992
2019-06-07T13:25:23.411Z,3304
2019-06-07T13:26:23.165Z,3548
2019-06-07T13:27:24.513Z,3484
2019-06-07T13:28:25.667Z,3304
2019-06-07T13:29:29.580Z,3276
2019-06-07T13:30:28.933Z,3544
2019-06-07T13:31:29.874Z,3408
2019-06-07T13:32:31.286Z,2960
2019-06-07T13:33:38.180Z,2404
2019-06-07T13:34:34.066Z,2160
2019-06-07T13:35:35.485Z,2124
2019-06-07T13:36:36.906Z,2116
2019-06-07T13:37:38.325Z,2700
2019-06-07T13:38:39.756Z,2604
2019-06-07T13:39:41.198Z,2516
2019-06-07T13:40:42.619Z,2020
2019-06-07T13:41:44.089Z,2068
2019-06-07T13:42:45.456Z,2524
2019-06-07T13:43:46.868Z,2100
2019-06-07T13:44:48.271Z,1924
2019-06-07T13:45:49.703Z,1896
2019-06-07T13:46:51.215Z,1956
2019-06-07T13:47:52.525Z,1952
2019-06-07T13:48:53.945Z,1972
2019-06-07T13:49:55.551Z,1968
2019-06-07T13:50:56.813Z,2008
2019-06-07T13:51:58.227Z,1952
2019-06-07T13:52:59.687Z,1996
2019-06-07T13:54:01.097Z,2540
2019-06-07T13:55:02.852Z,2240
2019-06-07T13:56:03.873Z,2584
2019-06-07T13:57:05.302Z,3180
2019-06-07T13:58:06.729Z,2636
2019-06-07T13:59:08.149Z,2036
2019-06-07T14:00:10.660Z,1756